N955PM KASH-KTOL
Flight info
| Callsign | N955PM |
|---|---|
| Flight time | 1h 27m |
| Altitude | 40000 |
| Route | CAM ALB |
| Aircraft | CL60/M-SBDE1E2E3FGHIJ1J4J5J7M3RWXYZ/LB1V1D1 |
Departure
| Time | 2026-04-21 22:01 |
|---|---|
| Airport | Nashua Airport / Boire Field (KASH) |
Arrival
| Time | 2026-04-21 23:28 |
|---|---|
| Airport | Eugene F. Kranz Toledo Express Airport (KTOL) |
| Time | Latitude | Longitude | Altitude | Speed | Heading |
|---|---|---|---|---|---|
| 2026-04-21 21:38 | 42.78285 | -71.52032 | 202 ft | 0 kts | 212° |
| 2026-04-21 21:57 | 42.78262 | -71.52067 | 203 ft | 12 kts | 266° |
| 2026-04-21 21:58 | 42.78305 | -71.52064 | 203 ft | 12 kts | 32° |
| 2026-04-21 21:58 | 42.78326 | -71.51969 | 202 ft | 12 kts | 122° |
| 2026-04-21 21:58 | 42.78291 | -71.51894 | 201 ft | 5 kts | 122° |
| 2026-04-21 21:58 | 42.78275 | -71.51862 | 201 ft | 8 kts | 122° |
| 2026-04-21 21:59 | 42.78225 | -71.51757 | 200 ft | 19 kts | 123° |
| 2026-04-21 21:59 | 42.78130 | -71.51556 | 199 ft | 31 kts | 122° |
| 2026-04-21 21:59 | 42.77993 | -71.51266 | 196 ft | 39 kts | 122° |
| 2026-04-21 21:59 | 42.77844 | -71.50949 | 195 ft | 39 kts | 123° |
| 2026-04-21 22:00 | 42.77704 | -71.50657 | 194 ft | 23 kts | 122° |
| 2026-04-21 22:00 | 42.77727 | -71.50541 | 194 ft | 13 kts | 33° |
| 2026-04-21 22:00 | 42.77812 | -71.50499 | 194 ft | 13 kts | 301° |
| 2026-04-21 22:00 | 42.77826 | -71.50532 | 194 ft | 23 kts | 302° |
| 2026-04-21 22:01 | 42.78089 | -71.51086 | 196 ft | 111 kts | 302° |
| 2026-04-21 22:01 | 42.78640 | -71.52226 | 283 ft | 167 kts | 305° |
| 2026-04-21 22:01 | 42.79341 | -71.53527 | 947 ft | 178 kts | 304° |
| 2026-04-21 22:01 | 42.80127 | -71.54936 | 1533 ft | 201 kts | 302° |
| 2026-04-21 22:02 | 42.80877 | -71.56605 | 2286 ft | 215 kts | 290° |
| 2026-04-21 22:02 | 42.81258 | -71.58624 | 2978 ft | 234 kts | 276° |
| 2026-04-21 22:02 | 42.81484 | -71.60902 | 3655 ft | 253 kts | 276° |
| 2026-04-21 22:02 | 42.81723 | -71.63335 | 3961 ft | 261 kts | 276° |
| 2026-04-21 22:03 | 42.81984 | -71.65879 | 4424 ft | 280 kts | 277° |
| 2026-04-21 22:03 | 42.82257 | -71.68402 | 5891 ft | 268 kts | 277° |
| 2026-04-21 22:03 | 42.82518 | -71.70823 | 7202 ft | 261 kts | 278° |
| 2026-04-21 22:03 | 42.82777 | -71.73218 | 8360 ft | 259 kts | 279° |
| 2026-04-21 22:04 | 42.83036 | -71.75616 | 9423 ft | 260 kts | 280° |
| 2026-04-21 22:04 | 42.83313 | -71.78150 | 9845 ft | 286 kts | 280° |
| 2026-04-21 22:04 | 42.83428 | -71.80965 | 10237 ft | 310 kts | 270° |
| 2026-04-21 22:04 | 42.83313 | -71.83950 | 10942 ft | 321 kts | 270° |
| 2026-04-21 22:05 | 42.83196 | -71.86991 | 11801 ft | 325 kts | 271° |
| 2026-04-21 22:05 | 42.83080 | -71.90068 | 12711 ft | 326 kts | 272° |
| 2026-04-21 22:05 | 42.82964 | -71.93127 | 13575 ft | 328 kts | 272° |
| 2026-04-21 22:05 | 42.82847 | -71.96201 | 14423 ft | 329 kts | 273° |
| 2026-04-21 22:06 | 42.82731 | -71.99290 | 15197 ft | 331 kts | 273° |
| 2026-04-21 22:06 | 42.82612 | -72.02465 | 15901 ft | 335 kts | 273° |
| 2026-04-21 22:06 | 42.82494 | -72.05607 | 16569 ft | 339 kts | 274° |
| 2026-04-21 22:06 | 42.82373 | -72.08817 | 17238 ft | 341 kts | 274° |
| 2026-04-21 22:07 | 42.82251 | -72.12021 | 17952 ft | 342 kts | 274° |
| 2026-04-21 22:07 | 42.82127 | -72.15270 | 18598 ft | 344 kts | 274° |
| 2026-04-21 22:07 | 42.82002 | -72.18527 | 19215 ft | 346 kts | 274° |
| 2026-04-21 22:07 | 42.81876 | -72.21812 | 19789 ft | 349 kts | 275° |
| 2026-04-21 22:08 | 42.81749 | -72.25131 | 20378 ft | 351 kts | 275° |
| 2026-04-21 22:08 | 42.81621 | -72.28433 | 20851 ft | 356 kts | 275° |
| 2026-04-21 22:08 | 42.81489 | -72.31811 | 21370 ft | 359 kts | 275° |
| 2026-04-21 22:08 | 42.81356 | -72.35189 | 21919 ft | 360 kts | 275° |
| 2026-04-21 22:09 | 42.81220 | -72.38618 | 22384 ft | 363 kts | 275° |
| 2026-04-21 22:09 | 42.81083 | -72.42049 | 22865 ft | 365 kts | 275° |
| 2026-04-21 22:09 | 42.80945 | -72.45493 | 23322 ft | 367 kts | 276° |
| 2026-04-21 22:09 | 42.80804 | -72.49000 | 23749 ft | 370 kts | 276° |
| 2026-04-21 22:10 | 42.80662 | -72.52474 | 24161 ft | 372 kts | 276° |
| 2026-04-21 22:10 | 42.80518 | -72.56033 | 24498 ft | 377 kts | 276° |
| 2026-04-21 22:10 | 42.80371 | -72.59565 | 24974 ft | 377 kts | 275° |
| 2026-04-21 22:10 | 42.80222 | -72.63151 | 25314 ft | 380 kts | 275° |
| 2026-04-21 22:11 | 42.80071 | -72.66734 | 25754 ft | 381 kts | 274° |
| 2026-04-21 22:11 | 42.79920 | -72.70332 | 26072 ft | 384 kts | 274° |
| 2026-04-21 22:11 | 42.79765 | -72.74001 | 26393 ft | 387 kts | 274° |
| 2026-04-21 22:11 | 42.79609 | -72.77641 | 26712 ft | 389 kts | 275° |
| 2026-04-21 22:12 | 42.79449 | -72.81360 | 27050 ft | 391 kts | 275° |
| 2026-04-21 22:12 | 42.79290 | -72.85035 | 27360 ft | 393 kts | 274° |
| 2026-04-21 22:12 | 42.79126 | -72.88770 | 27675 ft | 395 kts | 274° |
| 2026-04-21 22:12 | 42.78962 | -72.92477 | 27952 ft | 397 kts | 275° |
| 2026-04-21 22:13 | 42.78797 | -72.96222 | 28133 ft | 401 kts | 275° |
| 2026-04-21 22:13 | 42.78626 | -73.00051 | 28351 ft | 404 kts | 275° |
| 2026-04-21 22:13 | 42.78455 | -73.03848 | 28645 ft | 405 kts | 274° |
| 2026-04-21 22:13 | 42.78279 | -73.07675 | 28980 ft | 404 kts | 275° |
| 2026-04-21 22:14 | 42.78103 | -73.11510 | 29078 ft | 409 kts | 275° |
| 2026-04-21 22:14 | 42.77925 | -73.15391 | 29311 ft | 410 kts | 274° |
| 2026-04-21 22:14 | 42.77743 | -73.19269 | 29625 ft | 409 kts | 274° |
| 2026-04-21 22:14 | 42.77560 | -73.23179 | 29855 ft | 410 kts | 275° |
| 2026-04-21 22:15 | 42.77376 | -73.27071 | 30006 ft | 413 kts | 274° |
| 2026-04-21 22:15 | 42.77191 | -73.30980 | 30124 ft | 416 kts | 274° |
| 2026-04-21 22:15 | 42.77002 | -73.34940 | 30343 ft | 416 kts | 274° |
| 2026-04-21 22:16 | 42.76617 | -73.42913 | 30625 ft | 419 kts | 274° |
| 2026-04-21 22:16 | 42.76421 | -73.46915 | 30815 ft | 419 kts | 274° |
| 2026-04-21 22:16 | 42.76226 | -73.50879 | 30916 ft | 421 kts | 274° |
| 2026-04-21 22:16 | 42.76027 | -73.54886 | 31100 ft | 421 kts | 274° |
| 2026-04-21 22:17 | 42.75829 | -73.58852 | 31313 ft | 420 kts | 274° |
| 2026-04-21 22:17 | 42.75625 | -73.62888 | 31504 ft | 420 kts | 274° |
| 2026-04-21 22:17 | 42.75424 | -73.66858 | 31694 ft | 419 kts | 273° |
| 2026-04-21 22:17 | 42.75220 | -73.70870 | 31856 ft | 420 kts | 273° |
| 2026-04-21 22:18 | 42.75016 | -73.74836 | 32053 ft | 419 kts | 273° |
| 2026-04-21 22:18 | 42.74810 | -73.78824 | 32233 ft | 419 kts | 273° |
| 2026-04-21 22:18 | 42.74607 | -73.82723 | 32442 ft | 418 kts | 273° |
| 2026-04-21 22:18 | 42.74365 | -73.86752 | 32591 ft | 419 kts | 272° |
| 2026-04-21 22:19 | 42.74100 | -73.90711 | 32754 ft | 419 kts | 272° |
| 2026-04-21 22:19 | 42.73834 | -73.94661 | 32888 ft | 419 kts | 272° |
| 2026-04-21 22:19 | 42.73569 | -73.98588 | 32995 ft | 420 kts | 271° |
| 2026-04-21 22:19 | 42.73301 | -74.02540 | 33147 ft | 420 kts | 271° |
| 2026-04-21 22:20 | 42.73030 | -74.06528 | 33318 ft | 419 kts | 271° |
| 2026-04-21 22:20 | 42.72759 | -74.10480 | 33479 ft | 419 kts | 271° |
| 2026-04-21 22:20 | 42.72488 | -74.14421 | 33632 ft | 418 kts | 271° |
| 2026-04-21 22:20 | 42.72213 | -74.18395 | 33785 ft | 418 kts | 271° |
| 2026-04-21 22:21 | 42.71941 | -74.22306 | 33908 ft | 418 kts | 271° |
| 2026-04-21 22:21 | 42.71665 | -74.26263 | 34051 ft | 417 kts | 271° |
| 2026-04-21 22:21 | 42.71387 | -74.30223 | 34186 ft | 417 kts | 271° |
| 2026-04-21 22:22 | 42.70824 | -74.38227 | 34181 ft | 423 kts | 271° |
| 2026-04-21 22:22 | 42.70254 | -74.46244 | 34177 ft | 427 kts | 271° |
| 2026-04-21 22:23 | 42.69671 | -74.54341 | 34175 ft | 431 kts | 271° |
| 2026-04-21 22:23 | 42.69078 | -74.62485 | 34176 ft | 433 kts | 270° |
| 2026-04-21 22:24 | 42.68473 | -74.70719 | 34173 ft | 434 kts | 270° |
| 2026-04-21 22:24 | 42.67861 | -74.78969 | 34161 ft | 434 kts | 270° |
| 2026-04-21 22:25 | 42.67246 | -74.87160 | 34171 ft | 433 kts | 270° |
| 2026-04-21 22:25 | 42.66630 | -74.95293 | 34161 ft | 432 kts | 270° |
| 2026-04-21 22:26 | 42.66008 | -75.03432 | 34165 ft | 432 kts | 270° |
| 2026-04-21 22:26 | 42.65383 | -75.11543 | 34160 ft | 432 kts | 270° |
| 2026-04-21 22:27 | 42.64752 | -75.19657 | 34160 ft | 433 kts | 270° |
| 2026-04-21 22:27 | 42.64116 | -75.27756 | 34168 ft | 433 kts | 270° |
| 2026-04-21 22:28 | 42.63469 | -75.35920 | 34174 ft | 432 kts | 270° |
| 2026-04-21 22:28 | 42.62819 | -75.44037 | 34185 ft | 432 kts | 270° |
| 2026-04-21 22:29 | 42.62168 | -75.52108 | 34184 ft | 431 kts | 270° |
| 2026-04-21 22:29 | 42.61510 | -75.60195 | 34185 ft | 431 kts | 270° |
| 2026-04-21 22:30 | 42.60838 | -75.68365 | 34171 ft | 431 kts | 269° |
| 2026-04-21 22:30 | 42.60171 | -75.76419 | 34173 ft | 430 kts | 269° |
| 2026-04-21 22:31 | 42.59497 | -75.84480 | 34162 ft | 430 kts | 269° |
| 2026-04-21 22:31 | 42.58821 | -75.92502 | 34155 ft | 429 kts | 269° |
| 2026-04-21 22:32 | 42.58134 | -76.00587 | 34152 ft | 429 kts | 269° |
| 2026-04-21 22:32 | 42.57447 | -76.08601 | 34155 ft | 428 kts | 269° |
| 2026-04-21 22:33 | 42.56753 | -76.16632 | 34146 ft | 429 kts | 269° |
| 2026-04-21 22:33 | 42.56053 | -76.24668 | 34152 ft | 429 kts | 269° |
| 2026-04-21 22:34 | 42.55349 | -76.32676 | 34147 ft | 429 kts | 268° |
| 2026-04-21 22:34 | 42.54639 | -76.40698 | 34148 ft | 428 kts | 269° |
| 2026-04-21 22:35 | 42.53927 | -76.48664 | 34160 ft | 428 kts | 268° |
| 2026-04-21 22:35 | 42.53205 | -76.56690 | 34142 ft | 428 kts | 268° |
| 2026-04-21 22:36 | 42.52104 | -76.68806 | 34134 ft | 429 kts | 267° |
| 2026-04-21 22:36 | 42.51366 | -76.76846 | 34119 ft | 429 kts | 268° |
| 2026-04-21 22:37 | 42.50622 | -76.84885 | 34118 ft | 429 kts | 268° |
| 2026-04-21 22:37 | 42.49876 | -76.92880 | 34116 ft | 429 kts | 267° |
| 2026-04-21 22:38 | 42.49126 | -77.00868 | 34111 ft | 429 kts | 267° |
| 2026-04-21 22:38 | 42.48363 | -77.08929 | 34105 ft | 430 kts | 267° |
| 2026-04-21 22:39 | 42.47597 | -77.16952 | 34103 ft | 430 kts | 267° |
| 2026-04-21 22:39 | 42.46827 | -77.24970 | 34086 ft | 430 kts | 267° |
| 2026-04-21 22:40 | 42.46047 | -77.33019 | 34086 ft | 430 kts | 267° |
| 2026-04-21 22:40 | 42.45253 | -77.41163 | 34087 ft | 430 kts | 267° |
| 2026-04-21 22:41 | 42.44458 | -77.49242 | 34086 ft | 430 kts | 267° |
| 2026-04-21 22:41 | 42.43657 | -77.57336 | 34081 ft | 431 kts | 267° |
| 2026-04-21 22:42 | 42.42852 | -77.65402 | 34083 ft | 431 kts | 266° |
| 2026-04-21 22:42 | 42.42062 | -77.73257 | 34075 ft | 432 kts | 266° |
| 2026-04-21 22:43 | 42.41279 | -77.81011 | 34074 ft | 432 kts | 266° |
| 2026-04-21 22:43 | 42.40459 | -77.89057 | 34069 ft | 432 kts | 266° |
| 2026-04-21 22:44 | 42.39636 | -77.97080 | 34071 ft | 432 kts | 266° |
| 2026-04-21 22:44 | 42.38798 | -78.05152 | 34070 ft | 432 kts | 265° |
| 2026-04-21 22:45 | 42.37962 | -78.13195 | 34069 ft | 432 kts | 266° |
| 2026-04-21 22:45 | 42.37117 | -78.21265 | 34072 ft | 433 kts | 266° |
| 2026-04-21 22:46 | 42.36259 | -78.29393 | 34071 ft | 433 kts | 266° |
| 2026-04-21 22:46 | 42.35400 | -78.37493 | 34066 ft | 434 kts | 266° |
| 2026-04-21 22:47 | 42.34537 | -78.45550 | 34065 ft | 434 kts | 265° |
| 2026-04-21 22:47 | 42.33660 | -78.53696 | 34061 ft | 435 kts | 266° |
| 2026-04-21 22:48 | 42.32776 | -78.61770 | 34054 ft | 435 kts | 265° |
| 2026-04-21 22:48 | 42.31875 | -78.69846 | 34046 ft | 435 kts | 265° |
| 2026-04-21 22:49 | 42.30959 | -78.77992 | 34048 ft | 435 kts | 265° |
| 2026-04-21 22:49 | 42.30044 | -78.86082 | 34042 ft | 435 kts | 265° |
| 2026-04-21 22:50 | 42.29125 | -78.94143 | 34038 ft | 436 kts | 265° |
| 2026-04-21 22:50 | 42.28191 | -79.02288 | 34041 ft | 437 kts | 264° |
| 2026-04-21 22:51 | 42.27253 | -79.10417 | 34038 ft | 438 kts | 265° |
| 2026-04-21 22:51 | 42.26305 | -79.18568 | 34047 ft | 437 kts | 264° |
| 2026-04-21 22:52 | 42.25357 | -79.26669 | 34048 ft | 437 kts | 264° |
| 2026-04-21 22:52 | 42.24396 | -79.34829 | 34056 ft | 437 kts | 264° |
| 2026-04-21 22:53 | 42.23426 | -79.43010 | 34043 ft | 438 kts | 265° |
| 2026-04-21 22:53 | 42.22463 | -79.51087 | 34038 ft | 438 kts | 264° |
| 2026-04-21 22:54 | 42.21488 | -79.59204 | 34029 ft | 437 kts | 264° |
| 2026-04-21 22:54 | 42.20502 | -79.67365 | 34026 ft | 437 kts | 264° |
| 2026-04-21 22:55 | 42.19514 | -79.75497 | 34020 ft | 438 kts | 264° |
| 2026-04-21 22:55 | 42.18521 | -79.83617 | 34019 ft | 438 kts | 264° |
| 2026-04-21 22:56 | 42.17524 | -79.91720 | 34024 ft | 438 kts | 264° |
| 2026-04-21 22:56 | 42.16519 | -79.99841 | 34027 ft | 439 kts | 264° |
| 2026-04-21 22:57 | 42.15514 | -80.07909 | 34022 ft | 438 kts | 264° |
| 2026-04-21 22:57 | 42.14497 | -80.16025 | 34021 ft | 438 kts | 264° |
| 2026-04-21 22:58 | 42.13474 | -80.24147 | 34021 ft | 438 kts | 264° |
| 2026-04-21 22:58 | 42.12450 | -80.32224 | 34015 ft | 439 kts | 264° |
| 2026-04-21 22:59 | 42.11412 | -80.40363 | 34000 ft | 439 kts | 264° |
| 2026-04-21 22:59 | 42.10376 | -80.48440 | 34001 ft | 439 kts | 264° |
| 2026-04-21 23:00 | 42.09325 | -80.56586 | 33823 ft | 443 kts | 264° |
| 2026-04-21 23:00 | 42.08813 | -80.60542 | 33583 ft | 445 kts | 264° |
| 2026-04-21 23:00 | 42.08262 | -80.64784 | 33320 ft | 444 kts | 264° |
| 2026-04-21 23:01 | 42.07729 | -80.68874 | 33064 ft | 441 kts | 263° |
| 2026-04-21 23:01 | 42.07198 | -80.72934 | 32809 ft | 437 kts | 263° |
| 2026-04-21 23:01 | 42.06672 | -80.76936 | 32560 ft | 434 kts | 263° |
| 2026-04-21 23:01 | 42.06146 | -80.80938 | 32314 ft | 431 kts | 263° |
| 2026-04-21 23:02 | 42.05624 | -80.84889 | 32060 ft | 429 kts | 263° |
| 2026-04-21 23:02 | 42.05104 | -80.88823 | 31812 ft | 427 kts | 263° |
| 2026-04-21 23:02 | 42.04578 | -80.92791 | 31563 ft | 425 kts | 263° |
| 2026-04-21 23:02 | 42.04058 | -80.96707 | 31319 ft | 424 kts | 263° |
| 2026-04-21 23:03 | 42.03539 | -81.00594 | 31070 ft | 422 kts | 263° |
| 2026-04-21 23:03 | 42.03023 | -81.04459 | 30824 ft | 423 kts | 263° |
| 2026-04-21 23:03 | 42.02503 | -81.08343 | 30580 ft | 425 kts | 263° |
| 2026-04-21 23:03 | 42.01973 | -81.12295 | 30331 ft | 426 kts | 263° |
| 2026-04-21 23:04 | 42.01451 | -81.16169 | 30084 ft | 426 kts | 263° |
| 2026-04-21 23:04 | 42.00921 | -81.20091 | 29829 ft | 425 kts | 263° |
| 2026-04-21 23:04 | 42.00395 | -81.23972 | 29582 ft | 422 kts | 263° |
| 2026-04-21 23:04 | 41.99867 | -81.27856 | 29339 ft | 420 kts | 263° |
| 2026-04-21 23:05 | 41.99341 | -81.31717 | 29095 ft | 418 kts | 263° |
| 2026-04-21 23:05 | 41.98823 | -81.35507 | 28849 ft | 416 kts | 263° |
| 2026-04-21 23:05 | 41.98299 | -81.39329 | 28609 ft | 414 kts | 263° |
| 2026-04-21 23:05 | 41.97780 | -81.43118 | 28350 ft | 413 kts | 263° |
| 2026-04-21 23:06 | 41.97262 | -81.46876 | 28102 ft | 410 kts | 263° |
| 2026-04-21 23:06 | 41.96744 | -81.50628 | 27858 ft | 409 kts | 263° |
| 2026-04-21 23:06 | 41.96227 | -81.54369 | 27608 ft | 407 kts | 263° |
| 2026-04-21 23:06 | 41.95708 | -81.58113 | 27357 ft | 405 kts | 263° |
| 2026-04-21 23:07 | 41.95190 | -81.61838 | 27106 ft | 404 kts | 263° |
| 2026-04-21 23:07 | 41.94668 | -81.65588 | 26857 ft | 402 kts | 263° |
| 2026-04-21 23:07 | 41.94149 | -81.69307 | 26607 ft | 401 kts | 263° |
| 2026-04-21 23:07 | 41.93649 | -81.72870 | 26366 ft | 400 kts | 263° |
| 2026-04-21 23:08 | 41.93179 | -81.76218 | 26145 ft | 399 kts | 263° |
| 2026-04-21 23:08 | 41.92622 | -81.80181 | 25868 ft | 397 kts | 263° |
| 2026-04-21 23:08 | 41.92108 | -81.83820 | 25621 ft | 396 kts | 263° |
| 2026-04-21 23:08 | 41.91591 | -81.87480 | 25373 ft | 394 kts | 263° |
| 2026-04-21 23:09 | 41.91082 | -81.91075 | 25132 ft | 393 kts | 262° |
| 2026-04-21 23:09 | 41.90570 | -81.94682 | 24878 ft | 393 kts | 262° |
| 2026-04-21 23:09 | 41.90050 | -81.98337 | 24620 ft | 391 kts | 262° |
| 2026-04-21 23:09 | 41.89537 | -82.01927 | 24371 ft | 389 kts | 262° |
| 2026-04-21 23:10 | 41.89024 | -82.05518 | 24123 ft | 388 kts | 262° |
| 2026-04-21 23:10 | 41.88511 | -82.09098 | 23874 ft | 387 kts | 262° |
| 2026-04-21 23:10 | 41.87997 | -82.12678 | 23616 ft | 386 kts | 263° |
| 2026-04-21 23:10 | 41.87487 | -82.16215 | 23372 ft | 385 kts | 262° |
| 2026-04-21 23:11 | 41.86974 | -82.19769 | 23064 ft | 386 kts | 262° |
| 2026-04-21 23:11 | 41.86467 | -82.23275 | 22559 ft | 385 kts | 263° |
| 2026-04-21 23:11 | 41.85956 | -82.26793 | 22066 ft | 381 kts | 262° |
| 2026-04-21 23:11 | 41.85451 | -82.30267 | 21555 ft | 377 kts | 262° |
| 2026-04-21 23:12 | 41.84949 | -82.33709 | 21054 ft | 374 kts | 262° |
| 2026-04-21 23:12 | 41.84454 | -82.37098 | 20579 ft | 372 kts | 262° |
| 2026-04-21 23:12 | 41.83954 | -82.40511 | 20086 ft | 369 kts | 263° |
| 2026-04-21 23:12 | 41.83457 | -82.43900 | 19587 ft | 367 kts | 263° |
| 2026-04-21 23:13 | 41.82965 | -82.47250 | 19092 ft | 364 kts | 263° |
| 2026-04-21 23:13 | 41.82478 | -82.50554 | 18625 ft | 362 kts | 263° |
| 2026-04-21 23:13 | 41.81990 | -82.53862 | 18141 ft | 360 kts | 263° |
| 2026-04-21 23:13 | 41.81500 | -82.57169 | 17662 ft | 357 kts | 263° |
| 2026-04-21 23:14 | 41.81020 | -82.60410 | 17201 ft | 355 kts | 263° |
| 2026-04-21 23:14 | 41.80541 | -82.63631 | 16740 ft | 351 kts | 263° |
| 2026-04-21 23:14 | 41.80068 | -82.66811 | 16267 ft | 348 kts | 262° |
| 2026-04-21 23:14 | 41.79587 | -82.70037 | 15783 ft | 345 kts | 262° |
| 2026-04-21 23:15 | 41.79121 | -82.73151 | 15341 ft | 341 kts | 262° |
| 2026-04-21 23:15 | 41.78658 | -82.76246 | 14898 ft | 339 kts | 262° |
| 2026-04-21 23:15 | 41.78191 | -82.79357 | 14428 ft | 335 kts | 262° |
| 2026-04-21 23:15 | 41.77731 | -82.82418 | 13987 ft | 332 kts | 262° |
| 2026-04-21 23:16 | 41.77277 | -82.85436 | 13562 ft | 328 kts | 262° |
| 2026-04-21 23:16 | 41.76828 | -82.88417 | 13124 ft | 326 kts | 261° |
| 2026-04-21 23:16 | 41.76382 | -82.91367 | 12684 ft | 322 kts | 261° |
| 2026-04-21 23:16 | 41.75938 | -82.94299 | 12275 ft | 321 kts | 261° |
| 2026-04-21 23:17 | 41.75497 | -82.97212 | 11847 ft | 319 kts | 261° |
| 2026-04-21 23:17 | 41.75053 | -83.00133 | 11418 ft | 317 kts | 261° |
| 2026-04-21 23:17 | 41.74617 | -83.02998 | 11002 ft | 313 kts | 261° |
| 2026-04-21 23:17 | 41.74184 | -83.05843 | 10571 ft | 312 kts | 261° |
| 2026-04-21 23:18 | 41.73748 | -83.08698 | 10157 ft | 309 kts | 260° |
| 2026-04-21 23:18 | 41.73318 | -83.11508 | 9764 ft | 307 kts | 260° |
| 2026-04-21 23:18 | 41.72890 | -83.14311 | 9358 ft | 307 kts | 260° |
| 2026-04-21 23:18 | 41.72464 | -83.17084 | 8918 ft | 303 kts | 260° |
| 2026-04-21 23:19 | 41.72040 | -83.19841 | 8543 ft | 301 kts | 260° |
| 2026-04-21 23:19 | 41.71616 | -83.22597 | 8148 ft | 301 kts | 260° |
| 2026-04-21 23:19 | 41.71190 | -83.25358 | 7742 ft | 300 kts | 260° |
| 2026-04-21 23:19 | 41.70773 | -83.28056 | 7340 ft | 297 kts | 260° |
| 2026-04-21 23:20 | 41.70359 | -83.30730 | 6957 ft | 288 kts | 259° |
| 2026-04-21 23:20 | 41.69955 | -83.33334 | 6569 ft | 280 kts | 259° |
| 2026-04-21 23:20 | 41.69567 | -83.35833 | 6205 ft | 271 kts | 259° |
| 2026-04-21 23:20 | 41.69183 | -83.38297 | 5874 ft | 262 kts | 259° |
| 2026-04-21 23:21 | 41.68820 | -83.40630 | 5540 ft | 255 kts | 259° |
| 2026-04-21 23:21 | 41.68462 | -83.42931 | 5197 ft | 250 kts | 259° |
| 2026-04-21 23:21 | 41.68107 | -83.45203 | 4862 ft | 245 kts | 259° |
| 2026-04-21 23:21 | 41.67761 | -83.47417 | 4543 ft | 240 kts | 258° |
| 2026-04-21 23:22 | 41.67422 | -83.49583 | 4218 ft | 235 kts | 258° |
| 2026-04-21 23:22 | 41.67092 | -83.51689 | 3916 ft | 230 kts | 258° |
| 2026-04-21 23:22 | 41.66767 | -83.53765 | 3601 ft | 225 kts | 258° |
| 2026-04-21 23:22 | 41.66449 | -83.55792 | 3293 ft | 216 kts | 257° |
| 2026-04-21 23:23 | 41.66149 | -83.57708 | 3102 ft | 207 kts | 257° |
| 2026-04-21 23:23 | 41.65701 | -83.59451 | 3081 ft | 190 kts | 243° |
| 2026-04-21 23:23 | 41.65120 | -83.60955 | 3086 ft | 173 kts | 247° |
| 2026-04-21 23:23 | 41.64663 | -83.62367 | 3080 ft | 155 kts | 248° |
| 2026-04-21 23:24 | 41.64266 | -83.63612 | 3063 ft | 133 kts | 248° |
| 2026-04-21 23:24 | 41.63918 | -83.64712 | 2913 ft | 125 kts | 248° |
| 2026-04-21 23:24 | 41.63600 | -83.65721 | 2778 ft | 123 kts | 247° |
| 2026-04-21 23:24 | 41.63285 | -83.66730 | 2637 ft | 125 kts | 247° |
| 2026-04-21 23:25 | 41.62947 | -83.67807 | 2477 ft | 123 kts | 247° |
| 2026-04-21 23:25 | 41.62617 | -83.68854 | 2303 ft | 120 kts | 247° |
| 2026-04-21 23:25 | 41.62291 | -83.69891 | 2165 ft | 123 kts | 247° |
| 2026-04-21 23:25 | 41.61958 | -83.70953 | 2002 ft | 122 kts | 247° |
| 2026-04-21 23:26 | 41.61624 | -83.72014 | 1844 ft | 123 kts | 246° |
| 2026-04-21 23:26 | 41.61289 | -83.73058 | 1680 ft | 123 kts | 246° |
| 2026-04-21 23:26 | 41.60941 | -83.74120 | 1503 ft | 125 kts | 246° |
| 2026-04-21 23:26 | 41.60608 | -83.75186 | 1368 ft | 124 kts | 247° |
| 2026-04-21 23:27 | 41.60272 | -83.76256 | 1207 ft | 127 kts | 248° |
| 2026-04-21 23:27 | 41.59927 | -83.77367 | 1054 ft | 131 kts | 246° |
| 2026-04-21 23:27 | 41.59570 | -83.78490 | 841 ft | 133 kts | 247° |
| 2026-04-21 23:27 | 41.59211 | -83.79663 | 687 ft | 131 kts | 248° |
| 2026-04-21 23:28 | 41.58905 | -83.80644 | 681 ft | 99 kts | 248° |
| 2026-04-21 23:28 | 41.58701 | -83.81297 | 683 ft | 52 kts | 248° |
| 2026-04-21 23:28 | 41.58613 | -83.81598 | 683 ft | 23 kts | 244° |
| 2026-04-21 23:28 | 41.58544 | -83.81799 | 683 ft | 23 kts | 248° |
| 2026-04-21 23:29 | 41.58591 | -83.81885 | 683 ft | 13 kts | 341° |
| 2026-04-21 23:29 | 41.58670 | -83.81948 | 683 ft | 13 kts | 271° |
| 2026-04-21 23:29 | 41.58634 | -83.82072 | 683 ft | 14 kts | 247° |
| 2026-04-21 23:29 | 41.58635 | -83.82185 | 683 ft | 13 kts | 333° |
| 2026-04-21 23:30 | 41.58628 | -83.82264 | 683 ft | 11 kts | 231° |
| 2026-04-21 23:30 | 41.58627 | -83.82272 | 683 ft | 1 kts | 315° |
| 2026-04-21 23:31 | 41.58628 | -83.82272 | 683 ft | 0 kts | 339° |